Time;durP1;ratioP1;P1;durP2;ratioP2;P2;SDS_P1;SDS_P2;PMS_P1;PMS_P2;Temp;Humidity;BMP_temperature;BMP_pressure;BME280_temperature;BME280_humidity;BME280_pressure;Samples;Min_cycle;Max_cycle;Signal;HPM_P1;HPM_P2
2021/10/08 00:01:12;;;;;;;4.55;2.83;;;;;;;;;;5093229;28;20051;-75
2021/10/08 00:03:37;;;;;;;6.32;3.47;;;;;;;;;;5093481;28;20577;-75
2021/10/08 00:06:03;;;;;;;5.35;3.03;;;;;;;;;;5093236;28;20038;-75
2021/10/08 00:08:28;;;;;;;6.78;3.08;;;;;;;;;;5093414;28;20032;-73
2021/10/08 00:10:54;;;;;;;6.25;3.03;;;;;;;;;;5093530;28;20064;-75
2021/10/08 00:13:19;;;;;;;7.28;2.70;;;;;;;;;;5074687;28;20032;-75
2021/10/08 00:15:44;;;;;;;6.25;3.75;;;;;;;;;;5093451;28;20404;-76
2021/10/08 00:18:10;;;;;;;6.07;2.92;;;;;;;;;;5075161;28;20069;-74
2021/10/08 00:20:35;;;;;;;9.30;3.53;;;;;;;;;;5091946;28;20044;-75
2021/10/08 00:23:02;;;;;;;4.20;3.55;;;;;;;;;;5093196;28;20467;-74
2021/10/08 00:25:28;;;;;;;5.13;2.92;;;;;;;;;;5092900;28;20036;-75
2021/10/08 00:27:53;;;;;;;4.28;3.20;;;;;;;;;;5092516;28;20136;-74
2021/10/08 00:30:18;;;;;;;4.45;3.35;;;;;;;;;;5093409;28;20039;-74
2021/10/08 00:32:44;;;;;;;6.25;3.97;;;;;;;;;;5074784;28;20400;-75
2021/10/08 00:35:09;;;;;;;7.97;3.33;;;;;;;;;;5092189;28;20039;-74
2021/10/08 00:37:35;;;;;;;3.80;3.33;;;;;;;;;;5092997;28;20028;-75
2021/10/08 00:40:00;;;;;;;5.50;2.55;;;;;;;;;;5092638;28;20054;-74
2021/10/08 00:42:26;;;;;;;3.97;3.08;;;;;;;;;;5092166;28;20039;-75
2021/10/08 00:44:53;;;;;;;7.43;3.35;;;;;;;;;;5074845;28;20075;-74
2021/10/08 00:47:18;;;;;;;4.15;3.08;;;;;;;;;;5092705;28;20050;-75
2021/10/08 00:49:44;;;;;;;4.78;3.10;;;;;;;;;;5091954;28;20564;-73
2021/10/08 00:52:10;;;;;;;6.25;3.33;;;;;;;;;;5092640;28;20077;-75
2021/10/08 00:54:35;;;;;;;4.22;3.58;;;;;;;;;;5092208;28;20413;-76
2021/10/08 00:57:01;;;;;;;3.30;2.15;;;;;;;;;;5092026;28;20093;-76
2021/10/08 00:59:27;;;;;;;6.35;5.03;;;;;;;;;;5092594;28;20493;-76
2021/10/08 01:01:52;;;;;;;6.43;3.25;;;;;;;;;;5092380;28;20054;-75
2021/10/08 01:04:18;;;;;;;6.65;2.85;;;;;;;;;;5091911;28;20024;-74
2021/10/08 01:06:44;;;;;;;4.63;2.80;;;;;;;;;;5092400;28;20571;-73
2021/10/08 01:09:09;;;;;;;7.00;4.97;;;;;;;;;;5091960;28;20114;-76
2021/10/08 01:11:36;;;;;;;6.60;3.97;;;;;;;;;;5073607;28;20381;-76
2021/10/08 01:14:02;;;;;;;9.38;3.35;;;;;;;;;;5092142;28;20031;-74
2021/10/08 01:16:28;;;;;;;6.25;3.75;;;;;;;;;;5073817;28;20385;-74
2021/10/08 01:18:53;;;;;;;5.75;3.40;;;;;;;;;;5091724;28;20025;-75
2021/10/08 01:21:19;;;;;;;6.13;3.63;;;;;;;;;;5092200;28;20039;-75
2021/10/08 01:23:46;;;;;;;5.10;2.58;;;;;;;;;;5091792;28;20082;-75
2021/10/08 01:26:12;;;;;;;3.65;2.83;;;;;;;;;;5091379;28;20121;-75
2021/10/08 01:28:37;;;;;;;7.45;2.97;;;;;;;;;;5091762;28;20099;-74
2021/10/08 01:31:03;;;;;;;7.78;3.47;;;;;;;;;;5091054;28;20535;-75
2021/10/08 01:33:28;;;;;;;7.95;3.88;;;;;;;;;;5091180;28;20060;-74
2021/10/08 01:35:54;;;;;;;7.07;3.22;;;;;;;;;;5091750;28;20039;-75
2021/10/08 01:38:19;;;;;;;5.72;3.13;;;;;;;;;;5091901;28;20130;-73
2021/10/08 01:40:44;;;;;;;4.65;3.63;;;;;;;;;;5091468;28;20040;-75
2021/10/08 01:43:10;;;;;;;5.88;4.43;;;;;;;;;;5091385;28;20516;-74
2021/10/08 01:45:35;;;;;;;4.30;3.25;;;;;;;;;;5091515;28;20114;-74
2021/10/08 01:48:01;;;;;;;6.32;2.95;;;;;;;;;;5091147;28;20123;-76
2021/10/08 01:50:26;;;;;;;5.38;3.33;;;;;;;;;;5091558;28;20046;-75
2021/10/08 01:52:52;;;;;;;8.00;3.13;;;;;;;;;;5091175;28;20106;-73
2021/10/08 01:55:17;;;;;;;5.30;3.33;;;;;;;;;;5091499;28;20567;-74
2021/10/08 01:57:43;;;;;;;4.15;3.33;;;;;;;;;;5091241;28;20028;-74
2021/10/08 02:00:09;;;;;;;5.50;3.22;;;;;;;;;;5091411;28;20498;-73
2021/10/08 02:02:35;;;;;;;5.80;3.28;;;;;;;;;;5091266;28;20090;-75
2021/10/08 02:05:00;;;;;;;11.20;3.20;;;;;;;;;;5090775;28;20476;-74
2021/10/08 02:07:25;;;;;;;6.45;3.28;;;;;;;;;;5091461;28;20036;-73
2021/10/08 02:09:51;;;;;;;4.55;2.22;;;;;;;;;;5091678;28;20035;-74
2021/10/08 02:12:16;;;;;;;7.90;3.33;;;;;;;;;;5090602;28;20066;-74
2021/10/08 02:14:42;;;;;;;3.13;2.83;;;;;;;;;;5091370;28;20446;-73
2021/10/08 02:17:07;;;;;;;5.18;4.32;;;;;;;;;;5091170;28;20028;-75
2021/10/08 02:19:33;;;;;;;3.67;2.55;;;;;;;;;;5090344;28;20042;-73
2021/10/08 02:21:58;;;;;;;5.20;3.53;;;;;;;;;;5091236;28;20550;-74
2021/10/08 02:24:24;;;;;;;5.53;2.85;;;;;;;;;;5091213;28;20032;-75
2021/10/08 02:26:49;;;;;;;4.95;3.08;;;;;;;;;;5090509;28;20054;-73
2021/10/08 02:29:14;;;;;;;5.95;5.00;;;;;;;;;;5091132;28;20036;-73
2021/10/08 02:31:40;;;;;;;5.80;3.58;;;;;;;;;;5091023;28;20035;-74
2021/10/08 02:34:06;;;;;;;4.30;2.97;;;;;;;;;;5090505;28;20109;-75
2021/10/08 02:36:31;;;;;;;4.90;3.42;;;;;;;;;;5091045;28;20831;-75
2021/10/08 02:38:57;;;;;;;5.68;2.80;;;;;;;;;;5090857;28;20036;-75
2021/10/08 02:41:23;;;;;;;7.25;3.05;;;;;;;;;;5091026;28;20032;-74
2021/10/08 02:43:49;;;;;;;4.53;2.90;;;;;;;;;;5094907;28;20485;-75
2021/10/08 02:46:15;;;;;;;5.85;3.28;;;;;;;;;;5094857;28;20051;-75
2021/10/08 02:48:40;;;;;;;6.53;4.07;;;;;;;;;;5094497;28;20434;-75
2021/10/08 02:51:06;;;;;;;5.15;2.83;;;;;;;;;;5094999;28;20036;-74
2021/10/08 02:53:31;;;;;;;4.30;2.78;;;;;;;;;;5094540;28;20121;-73
2021/10/08 02:55:57;;;;;;;7.30;2.70;;;;;;;;;;5094346;28;20038;-75
2021/10/08 02:58:23;;;;;;;4.47;3.25;;;;;;;;;;5095395;28;20070;-76
2021/10/08 03:00:49;;;;;;;4.47;2.95;;;;;;;;;;5094339;28;20067;-74
2021/10/08 03:03:14;;;;;;;10.95;3.45;;;;;;;;;;5094161;28;20122;-74
2021/10/08 03:05:40;;;;;;;4.88;3.05;;;;;;;;;;5095530;28;20521;-75
2021/10/08 03:08:05;;;;;;;5.78;3.72;;;;;;;;;;5094480;28;20040;-75
2021/10/08 03:10:30;;;;;;;5.82;3.40;;;;;;;;;;5094074;28;20115;-75
2021/10/08 03:12:56;;;;;;;4.75;3.20;;;;;;;;;;5076097;28;20481;-76
2021/10/08 03:15:21;;;;;;;8.07;3.53;;;;;;;;;;5094310;28;20517;-75
2021/10/08 03:17:46;;;;;;;6.22;3.70;;;;;;;;;;5093796;28;20122;-75
2021/10/08 03:20:12;;;;;;;5.55;3.65;;;;;;;;;;5076031;28;20059;-76
2021/10/08 03:22:38;;;;;;;4.82;3.55;;;;;;;;;;5093782;28;20050;-76
2021/10/08 03:25:08;;;;;;;5.78;3.70;;;;;;;;;;5075545;28;20032;-75
2021/10/08 03:27:38;;;;;;;6.10;2.80;;;;;;;;;;5093871;28;20074;-76
2021/10/08 03:30:06;;;;;;;5.97;3.65;;;;;;;;;;5093978;28;20028;-76
2021/10/08 03:32:32;;;;;;;11.77;4.20;;;;;;;;;;5076090;28;20067;-74
2021/10/08 03:34:57;;;;;;;6.03;3.08;;;;;;;;;;5094201;28;20460;-76
2021/10/08 03:37:28;;;;;;;6.43;3.00;;;;;;;;;;5094364;28;20036;-76
2021/10/08 03:39:54;;;;;;;6.22;4.00;;;;;;;;;;5075347;28;20035;-75
2021/10/08 03:42:21;;;;;;;5.03;3.17;;;;;;;;;;5093814;28;20109;-75
2021/10/08 03:44:57;;;;;;;9.85;4.53;;;;;;;;;;5075626;28;20024;-76
2021/10/08 03:47:40;;;;;;;5.32;3.45;;;;;;;;;;5093624;28;20032;-74
2021/10/08 03:50:06;;;;;;;6.25;5.00;;;;;;;;;;5075519;28;20043;-75
2021/10/08 03:52:31;;;;;;;6.18;3.45;;;;;;;;;;5075769;28;20055;-75
2021/10/08 03:54:57;;;;;;;6.20;3.58;;;;;;;;;;5092795;28;20516;-76
2021/10/08 03:57:22;;;;;;;7.47;3.40;;;;;;;;;;5095584;28;20090;-76
2021/10/08 03:59:47;;;;;;;5.07;3.70;;;;;;;;;;5099362;28;20035;-73
2021/10/08 04:02:13;;;;;;;4.45;3.33;;;;;;;;;;5104984;28;20054;-76
2021/10/08 04:04:39;;;;;;;6.15;3.60;;;;;;;;;;5086743;28;20032;-74
2021/10/08 04:07:05;;;;;;;5.55;4.03;;;;;;;;;;5104726;28;20044;-77
2021/10/08 04:09:30;;;;;;;9.90;3.40;;;;;;;;;;5094719;28;20546;-75
2021/10/08 04:11:55;;;;;;;6.63;3.92;;;;;;;;;;5094651;28;20028;-76
2021/10/08 04:14:21;;;;;;;6.28;3.38;;;;;;;;;;5094372;28;20491;-74
2021/10/08 04:16:46;;;;;;;6.97;2.72;;;;;;;;;;5093140;28;20035;-75
2021/10/08 04:19:11;;;;;;;7.20;3.95;;;;;;;;;;5092687;28;20115;-76
2021/10/08 04:21:37;;;;;;;6.22;3.40;;;;;;;;;;5093184;28;20046;-75
2021/10/08 04:24:02;;;;;;;7.00;3.60;;;;;;;;;;5092442;28;20040;-76
2021/10/08 04:26:28;;;;;;;5.47;3.22;;;;;;;;;;5093076;28;20050;-77
2021/10/08 04:28:53;;;;;;;6.03;4.13;;;;;;;;;;5093366;28;20063;-76
2021/10/08 04:31:19;;;;;;;6.85;4.32;;;;;;;;;;5092128;28;20120;-75
2021/10/08 04:33:44;;;;;;;6.15;3.90;;;;;;;;;;5093791;28;20128;-76
2021/10/08 04:36:09;;;;;;;5.45;3.70;;;;;;;;;;5092874;28;20028;-75
2021/10/08 04:38:35;;;;;;;8.50;4.28;;;;;;;;;;5092366;28;20040;-76
2021/10/08 04:41:01;;;;;;;5.45;3.47;;;;;;;;;;5092972;28;20043;-75
2021/10/08 04:43:27;;;;;;;6.68;3.95;;;;;;;;;;5092670;28;20127;-77
2021/10/08 04:45:53;;;;;;;5.28;4.20;;;;;;;;;;5091879;28;20034;-77
2021/10/08 04:48:18;;;;;;;6.35;2.97;;;;;;;;;;5092526;28;20036;-74
2021/10/08 04:50:44;;;;;;;8.45;3.58;;;;;;;;;;5092395;28;20043;-74
2021/10/08 04:53:21;;;;;;;5.03;3.83;;;;;;;;;;5073190;28;20489;-75
2021/10/08 04:55:47;;;;;;;10.45;3.58;;;;;;;;;;5074231;28;20036;-76
2021/10/08 04:58:14;;;;;;;6.68;3.92;;;;;;;;;;5092268;28;20059;-76
2021/10/08 05:00:39;;;;;;;6.82;3.53;;;;;;;;;;5091175;28;20489;-76
2021/10/08 05:03:13;;;;;;;4.00;3.33;;;;;;;;;;5092206;28;20036;-74
2021/10/08 05:05:39;;;;;;;10.52;4.03;;;;;;;;;;5073874;28;20032;-75
2021/10/08 05:08:05;;;;;;;5.05;3.33;;;;;;;;;;5091247;28;20572;-74
2021/10/08 05:10:31;;;;;;;7.47;3.95;;;;;;;;;;5092105;28;20069;-75
2021/10/08 05:12:58;;;;;;;7.88;4.00;;;;;;;;;;5091676;28;20058;-75
2021/10/08 05:15:24;;;;;;;5.07;3.40;;;;;;;;;;5091274;28;20032;-79
2021/10/08 05:17:49;;;;;;;10.02;4.18;;;;;;;;;;5092721;28;20076;-75
2021/10/08 05:20:15;;;;;;;5.88;3.50;;;;;;;;;;5073637;28;20040;-74
2021/10/08 05:22:40;;;;;;;5.80;4.18;;;;;;;;;;5091300;28;20028;-76
2021/10/08 05:25:06;;;;;;;9.68;3.63;;;;;;;;;;5073786;28;20040;-76
2021/10/08 05:27:32;;;;;;;7.00;4.88;;;;;;;;;;5072987;28;20395;-74
2021/10/08 05:29:57;;;;;;;7.95;5.20;;;;;;;;;;5091297;28;20473;-76
2021/10/08 05:32:22;;;;;;;9.50;4.32;;;;;;;;;;5091920;28;20024;-76
2021/10/08 05:34:48;;;;;;;10.70;4.45;;;;;;;;;;5092410;28;20040;-76
2021/10/08 05:37:13;;;;;;;9.07;4.25;;;;;;;;;;5089322;28;20070;-75
2021/10/08 05:39:39;;;;;;;8.57;3.38;;;;;;;;;;5070658;28;20044;-77
2021/10/08 05:42:05;;;;;;;5.93;3.42;;;;;;;;;;5072501;28;20047;-75
2021/10/08 05:44:30;;;;;;;9.60;4.07;;;;;;;;;;5070803;28;20032;-76
2021/10/08 05:46:55;;;;;;;11.27;4.43;;;;;;;;;;5070839;28;20036;-76
2021/10/08 05:49:21;;;;;;;6.68;3.28;;;;;;;;;;5071159;28;20036;-76
2021/10/08 05:51:46;;;;;;;7.18;3.75;;;;;;;;;;5071101;28;20163;-77
2021/10/08 05:54:12;;;;;;;7.35;6.03;;;;;;;;;;5070237;28;20086;-76
2021/10/08 05:56:37;;;;;;;7.35;4.78;;;;;;;;;;5070967;28;20020;-80
2021/10/08 05:59:02;;;;;;;8.25;4.05;;;;;;;;;;5071311;28;20517;-77
2021/10/08 06:01:28;;;;;;;7.72;4.05;;;;;;;;;;5068926;28;20032;-76
2021/10/08 06:03:53;;;;;;;7.65;4.63;;;;;;;;;;5070611;28;20037;-76
2021/10/08 06:06:18;;;;;;;9.43;3.45;;;;;;;;;;5071039;28;20512;-77
2021/10/08 06:08:44;;;;;;;4.85;3.38;;;;;;;;;;5070276;28;20036;-76
2021/10/08 06:11:09;;;;;;;6.15;3.63;;;;;;;;;;5070918;28;20036;-77
2021/10/08 06:13:35;;;;;;;5.05;3.47;;;;;;;;;;5070966;28;20056;-74
2021/10/08 06:16:01;;;;;;;9.05;4.15;;;;;;;;;;5070995;28;20513;-75
2021/10/08 06:18:26;;;;;;;7.93;3.13;;;;;;;;;;5070939;28;20082;-75
2021/10/08 06:20:52;;;;;;;7.85;3.72;;;;;;;;;;5071320;28;20444;-75
2021/10/08 06:23:17;;;;;;;6.10;4.50;;;;;;;;;;5070489;28;20072;-76
2021/10/08 06:25:43;;;;;;;6.15;3.53;;;;;;;;;;5075076;28;20039;-77
2021/10/08 06:28:08;;;;;;;10.43;4.10;;;;;;;;;;5091353;28;20089;-74
2021/10/08 06:30:33;;;;;;;14.50;3.45;;;;;;;;;;5072695;28;20044;-77
2021/10/08 06:32:59;;;;;;;4.38;3.70;;;;;;;;;;5086548;28;20043;-77
2021/10/08 06:35:24;;;;;;;8.90;3.95;;;;;;;;;;5091364;28;20032;-78
2021/10/08 06:37:50;;;;;;;7.40;5.22;;;;;;;;;;5072671;28;20386;-77
2021/10/08 06:40:15;;;;;;;11.00;4.32;;;;;;;;;;5091503;28;20036;-77
2021/10/08 06:42:41;;;;;;;6.88;4.18;;;;;;;;;;5091160;28;20028;-76
2021/10/08 06:45:07;;;;;;;9.90;4.40;;;;;;;;;;5090663;28;20039;-76
2021/10/08 06:47:34;;;;;;;7.55;3.83;;;;;;;;;;5091559;28;20043;-76
2021/10/08 06:49:59;;;;;;;10.63;3.58;;;;;;;;;;5090958;28;20496;-75
2021/10/08 06:52:25;;;;;;;6.30;5.50;;;;;;;;;;5091417;28;20040;-76
2021/10/08 06:54:50;;;;;;;7.20;4.40;;;;;;;;;;5091394;28;20051;-76
2021/10/08 06:57:15;;;;;;;11.90;4.50;;;;;;;;;;5091689;28;20066;-78
2021/10/08 06:59:41;;;;;;;9.00;5.70;;;;;;;;;;5091286;28;20442;-78
2021/10/08 07:02:07;;;;;;;8.75;5.28;;;;;;;;;;5091340;28;20457;-75
2021/10/08 07:04:32;;;;;;;6.75;4.40;;;;;;;;;;5091336;28;20039;-75
2021/10/08 07:06:57;;;;;;;10.77;4.22;;;;;;;;;;5091706;28;20110;-77
2021/10/08 07:09:23;;;;;;;7.70;3.60;;;;;;;;;;5091271;28;20032;-77
2021/10/08 07:11:48;;;;;;;10.02;4.88;;;;;;;;;;5091118;28;20370;-76
2021/10/08 07:14:14;;;;;;;10.15;5.20;;;;;;;;;;5091373;28;20093;-77
2021/10/08 07:16:39;;;;;;;6.22;4.28;;;;;;;;;;5091375;28;20029;-75
2021/10/08 07:19:08;;;;;;;7.90;4.18;;;;;;;;;;5091287;28;20579;-77
2021/10/08 07:21:34;;;;;;;5.88;3.60;;;;;;;;;;5091515;28;20036;-77
2021/10/08 07:24:00;;;;;;;9.25;4.78;;;;;;;;;;5091391;28;20032;-75
2021/10/08 07:26:29;;;;;;;9.13;4.18;;;;;;;;;;5091507;28;20088;-74
2021/10/08 07:28:54;;;;;;;9.60;4.57;;;;;;;;;;5073680;28;20036;-75
2021/10/08 07:31:20;;;;;;;9.65;5.28;;;;;;;;;;5095275;28;20396;-75
2021/10/08 07:33:45;;;;;;;9.60;4.22;;;;;;;;;;5095062;28;20083;-76
2021/10/08 07:36:11;;;;;;;8.02;4.13;;;;;;;;;;5095390;28;20042;-77
2021/10/08 07:38:38;;;;;;;13.20;4.30;;;;;;;;;;5094892;28;20032;-76
2021/10/08 07:41:08;;;;;;;11.82;4.53;;;;;;;;;;5076674;28;20089;-77
2021/10/08 07:43:36;;;;;;;8.93;6.35;;;;;;;;;;5076727;28;20428;-76
2021/10/08 07:46:02;;;;;;;9.80;4.97;;;;;;;;;;5076328;28;20036;-75
2021/10/08 07:48:28;;;;;;;8.57;6.07;;;;;;;;;;5094526;28;20038;-77
2021/10/08 07:50:54;;;;;;;9.32;4.00;;;;;;;;;;5094887;28;20044;-77
2021/10/08 07:53:19;;;;;;;12.02;4.28;;;;;;;;;;5094756;28;20058;-77
2021/10/08 07:55:44;;;;;;;8.30;5.03;;;;;;;;;;5094578;28;20059;-76
2021/10/08 07:58:10;;;;;;;7.88;4.22;;;;;;;;;;5095022;28;20060;-77
2021/10/08 08:00:35;;;;;;;11.25;4.63;;;;;;;;;;5076539;28;20066;-76
2021/10/08 08:03:00;;;;;;;7.40;4.35;;;;;;;;;;5094491;28;20119;-77
2021/10/08 08:05:26;;;;;;;11.63;4.68;;;;;;;;;;5094413;28;20050;-76
2021/10/08 08:07:51;;;;;;;11.48;5.97;;;;;;;;;;5094530;28;20033;-76
2021/10/08 08:10:17;;;;;;;6.80;4.93;;;;;;;;;;5094209;28;20040;-76
2021/10/08 08:12:43;;;;;;;12.93;6.82;;;;;;;;;;5093996;28;20471;-77
2021/10/08 08:15:09;;;;;;;9.23;4.68;;;;;;;;;;5093994;28;20031;-76
2021/10/08 08:17:35;;;;;;;7.88;4.70;;;;;;;;;;5094424;28;20070;-77
2021/10/08 08:20:00;;;;;;;7.00;4.20;;;;;;;;;;5094008;28;20059;-77
2021/10/08 08:22:26;;;;;;;9.07;5.45;;;;;;;;;;5093820;28;20503;-76
2021/10/08 08:24:51;;;;;;;7.32;4.05;;;;;;;;;;5094331;28;20036;-76
2021/10/08 08:27:17;;;;;;;8.00;4.72;;;;;;;;;;5093796;28;20040;-75
2021/10/08 08:29:42;;;;;;;7.45;4.13;;;;;;;;;;5093833;28;20028;-76
2021/10/08 08:32:09;;;;;;;6.80;4.55;;;;;;;;;;5093658;28;20032;-75
2021/10/08 08:34:34;;;;;;;8.38;5.05;;;;;;;;;;5093619;28;20024;-76
2021/10/08 08:37:00;;;;;;;9.02;4.63;;;;;;;;;;5093508;28;20043;-76
2021/10/08 08:39:26;;;;;;;13.85;5.32;;;;;;;;;;5093486;28;20032;-76
2021/10/08 08:41:52;;;;;;;15.68;5.35;;;;;;;;;;5093782;28;20124;-76
2021/10/08 08:44:17;;;;;;;14.75;6.32;;;;;;;;;;5093340;28;20107;-77
2021/10/08 08:46:44;;;;;;;13.05;4.05;;;;;;;;;;5093735;28;20388;-77
2021/10/08 08:49:09;;;;;;;7.03;4.75;;;;;;;;;;5094221;28;20066;-77
2021/10/08 08:51:35;;;;;;;9.85;4.50;;;;;;;;;;5093860;28;20036;-77
2021/10/08 08:54:07;;;;;;;9.93;4.75;;;;;;;;;;5092906;28;20052;-76
2021/10/08 08:56:34;;;;;;;7.18;4.65;;;;;;;;;;5093292;28;20024;-76
2021/10/08 08:59:04;;;;;;;10.65;5.13;;;;;;;;;;5075511;28;20036;-77
2021/10/08 09:01:30;;;;;;;8.05;4.72;;;;;;;;;;5093327;28;20146;-78
2021/10/08 09:04:07;;;;;;;10.02;4.25;;;;;;;;;;5074896;28;20572;-77
2021/10/08 09:06:36;;;;;;;8.10;4.60;;;;;;;;;;5074521;28;20528;-78
2021/10/08 09:09:14;;;;;;;11.10;5.15;;;;;;;;;;5093399;28;20070;-77
2021/10/08 09:11:40;;;;;;;8.98;4.35;;;;;;;;;;5093159;28;20056;-79
2021/10/08 09:14:22;;;;;;;10.05;5.50;;;;;;;;;;5092905;28;20417;-77
2021/10/08 09:17:24;;;;;;;7.32;4.68;;;;;;;;;;5093461;28;20067;-77
2021/10/08 09:20:06;;;;;;;11.10;5.00;;;;;;;;;;5022847;28;20034;-75
2021/10/08 09:22:39;;;;;;;;;;;;;;;;;;5080120;28;20056;-76
2021/10/08 09:25:26;;;;;;;9.00;5.43;;;;;;;;;;5080042;28;20304;-77
2021/10/08 09:28:05;;;;;;;17.52;4.95;;;;;;;;;;5075255;28;20032;-76
2021/10/08 09:30:45;;;;;;;10.40;5.00;;;;;;;;;;5093014;28;20554;-77
2021/10/08 09:33:14;;;;;;;9.10;4.65;;;;;;;;;;5092688;28;20104;-77
2021/10/08 09:35:41;;;;;;;7.22;4.30;;;;;;;;;;5092526;28;20040;-77
2021/10/08 09:38:11;;;;;;;8.55;4.97;;;;;;;;;;5092321;28;20035;-77
2021/10/08 09:40:51;;;;;;;9.68;5.35;;;;;;;;;;5092200;28;20052;-76
2021/10/08 09:43:22;;;;;;;6.53;4.20;;;;;;;;;;5092110;28;20054;-76
2021/10/08 09:45:51;;;;;;;10.00;5.47;;;;;;;;;;5092287;28;20112;-77
2021/10/08 09:48:21;;;;;;;14.85;5.50;;;;;;;;;;5091991;28;20063;-77
2021/10/08 09:50:57;;;;;;;10.63;4.57;;;;;;;;;;5092049;28;20036;-77
2021/10/08 09:53:23;;;;;;;8.52;4.75;;;;;;;;;;5091360;28;20051;-77
2021/10/08 09:55:48;;;;;;;8.90;4.72;;;;;;;;;;5092323;28;20034;-78
2021/10/08 09:58:14;;;;;;;12.60;5.55;;;;;;;;;;5092117;28;20036;-77
2021/10/08 10:00:46;;;;;;;8.32;4.68;;;;;;;;;;5092033;28;20496;-78
2021/10/08 10:03:16;;;;;;;9.02;5.28;;;;;;;;;;5092171;28;20032;-78
2021/10/08 10:05:42;;;;;;;17.00;5.53;;;;;;;;;;5092104;28;20032;-76
2021/10/08 10:08:08;;;;;;;9.13;4.90;;;;;;;;;;5091810;28;20074;-77
2021/10/08 10:10:36;;;;;;;10.18;5.07;;;;;;;;;;5073330;28;20043;-77
2021/10/08 10:13:08;;;;;;;9.63;4.82;;;;;;;;;;5091556;28;20052;-78
2021/10/08 10:15:35;;;;;;;10.80;5.13;;;;;;;;;;5057568;28;20048;-77
2021/10/08 10:18:08;;;;;;;12.45;4.70;;;;;;;;;;5091512;28;20039;-77
2021/10/08 10:20:35;;;;;;;10.45;4.65;;;;;;;;;;5073728;28;20062;-76
2021/10/08 10:23:04;;;;;;;11.15;4.38;;;;;;;;;;5092000;28;20097;-78
2021/10/08 10:25:30;;;;;;;;;;;;;;;;;;5092136;28;20027;-80
2021/10/08 10:27:56;;;;;;;8.02;3.67;;;;;;;;;;5091677;28;20006;-78
2021/10/08 10:30:21;;;;;;;9.95;5.43;;;;;;;;;;5091698;28;20170;-77
2021/10/08 10:32:48;;;;;;;11.07;4.90;;;;;;;;;;5091702;28;20497;-78
2021/10/08 10:35:48;;;;;;;7.40;4.50;;;;;;;;;;5091689;28;20527;-79
2021/10/08 10:38:22;;;;;;;8.63;4.53;;;;;;;;;;5091684;28;20063;-79
2021/10/08 10:40:47;;;;;;;8.68;4.72;;;;;;;;;;5091528;28;20046;-77
2021/10/08 10:43:12;;;;;;;10.52;4.50;;;;;;;;;;5091407;28;20449;-78
2021/10/08 10:45:42;;;;;;;8.48;4.68;;;;;;;;;;5091323;28;20051;-78
2021/10/08 10:48:16;;;;;;;8.48;4.20;;;;;;;;;;5091253;28;20507;-77
2021/10/08 10:51:09;;;;;;;10.15;5.28;;;;;;;;;;5073010;28;20043;-78
2021/10/08 10:53:49;;;;;;;10.70;5.43;;;;;;;;;;5072678;28;20048;-79
2021/10/08 10:56:36;;;;;;;9.25;4.22;;;;;;;;;;5091439;28;20460;-78
2021/10/08 10:59:25;;;;;;;8.35;5.05;;;;;;;;;;5091207;28;20036;-79
2021/10/08 11:02:03;;;;;;;13.75;4.70;;;;;;;;;;5091556;28;20165;-78
2021/10/08 11:04:30;;;;;;;8.63;4.72;;;;;;;;;;5094588;28;20036;-78
2021/10/08 11:07:05;;;;;;;8.10;5.72;;;;;;;;;;5095352;28;20413;-79
2021/10/08 11:09:31;;;;;;;8.18;4.95;;;;;;;;;;5095198;28;20071;-78
2021/10/08 11:12:34;;;;;;;9.48;4.97;;;;;;;;;;5095208;28;20466;-78
2021/10/08 11:15:15;;;;;;;7.45;4.68;;;;;;;;;;5077006;28;20180;-77
2021/10/08 11:17:56;;;;;;;9.85;4.43;;;;;;;;;;5095099;28;20552;-78
2021/10/08 11:20:31;;;;;;;7.00;4.80;;;;;;;;;;5095136;28;20050;-78
2021/10/08 11:23:05;;;;;;;9.45;4.90;;;;;;;;;;5094789;28;20028;-79
2021/10/08 11:25:32;;;;;;;9.70;5.55;;;;;;;;;;5095111;28;20093;-78
2021/10/08 11:27:58;;;;;;;10.50;4.38;;;;;;;;;;5094642;28;20028;-77
2021/10/08 11:30:26;;;;;;;9.40;4.72;;;;;;;;;;5095124;28;20039;-77
2021/10/08 11:32:55;;;;;;;10.57;4.20;;;;;;;;;;5094774;28;20042;-78
2021/10/08 11:35:32;;;;;;;10.90;5.00;;;;;;;;;;5094668;28;20140;-78
2021/10/08 11:37:58;;;;;;;9.93;3.42;;;;;;;;;;5094561;28;20058;-78
2021/10/08 11:40:41;;;;;;;8.50;3.97;;;;;;;;;;5094565;28;20401;-79
2021/10/08 11:43:20;;;;;;;8.77;4.70;;;;;;;;;;5076144;28;20385;-77
2021/10/08 11:46:02;;;;;;;4.32;2.92;;;;;;;;;;5094538;28;20039;-77
2021/10/08 11:48:52;;;;;;;7.10;3.35;;;;;;;;;;5094586;28;20043;-77
2021/10/08 11:51:17;;;;;;;9.57;3.20;;;;;;;;;;5076282;28;20036;-77
2021/10/08 11:53:48;;;;;;;5.95;3.40;;;;;;;;;;5093894;28;20055;-77
2021/10/08 11:56:27;;;;;;;5.82;2.75;;;;;;;;;;5094391;28;20039;-77
2021/10/08 11:58:58;;;;;;;6.60;4.47;;;;;;;;;;5076143;28;20032;-77
2021/10/08 12:01:25;;;;;;;4.00;3.30;;;;;;;;;;5093899;28;20131;-77
2021/10/08 12:03:51;;;;;;;8.55;4.00;;;;;;;;;;5094079;28;20416;-76
2021/10/08 12:06:24;;;;;;;5.15;3.55;;;;;;;;;;5094273;28;20504;-77
2021/10/08 12:08:50;;;;;;;7.50;3.08;;;;;;;;;;5075960;28;20032;-75
2021/10/08 12:11:17;;;;;;;7.22;3.03;;;;;;;;;;5094084;28;20032;-77
2021/10/08 12:13:58;;;;;;;7.68;3.55;;;;;;;;;;5094152;28;20038;-78
2021/10/08 12:16:35;;;;;;;5.57;3.10;;;;;;;;;;5093167;28;20160;-78
2021/10/08 12:19:00;;;;;;;6.75;4.05;;;;;;;;;;5075810;28;20378;-77
2021/10/08 12:21:29;;;;;;;8.00;3.58;;;;;;;;;;5093725;28;20036;-76
2021/10/08 12:24:06;;;;;;;6.85;3.00;;;;;;;;;;5093940;28;20040;-77
2021/10/08 12:26:35;;;;;;;3.50;3.13;;;;;;;;;;5094115;28;20032;-78
2021/10/08 12:29:06;;;;;;;7.63;3.90;;;;;;;;;;5094221;28;20032;-78
2021/10/08 12:31:52;;;;;;;9.10;4.20;;;;;;;;;;5075962;28;20036;-76
2021/10/08 12:34:41;;;;;;;4.38;3.78;;;;;;;;;;5075577;28;20404;-76
2021/10/08 12:37:12;;;;;;;10.82;3.90;;;;;;;;;;5093547;28;20495;-75
2021/10/08 12:39:40;;;;;;;5.18;3.10;;;;;;;;;;5093281;28;20047;-77
2021/10/08 12:42:18;;;;;;;4.50;3.13;;;;;;;;;;5075329;28;20070;-76
2021/10/08 12:44:56;;;;;;;9.27;3.75;;;;;;;;;;5093169;28;20024;-78
2021/10/08 12:47:28;;;;;;;6.65;3.38;;;;;;;;;;5093629;28;20481;-77
2021/10/08 12:50:01;;;;;;;7.70;2.88;;;;;;;;;;5059466;28;20028;-77
2021/10/08 12:52:37;;;;;;;9.20;3.75;;;;;;;;;;5093420;28;20066;-78
2021/10/08 12:55:05;;;;;;;5.63;2.90;;;;;;;;;;5093087;28;20139;-78
2021/10/08 12:57:30;;;;;;;5.22;3.00;;;;;;;;;;5093151;28;20071;-76
2021/10/08 12:59:57;;;;;;;9.10;4.13;;;;;;;;;;5093184;28;20078;-77
2021/10/08 13:02:41;;;;;;;8.25;3.80;;;;;;;;;;5093034;28;20032;-77
2021/10/08 13:05:07;;;;;;;6.40;3.42;;;;;;;;;;5092912;28;20035;-77
2021/10/08 13:07:33;;;;;;;7.55;3.47;;;;;;;;;;5092755;28;20070;-77
2021/10/08 13:10:15;;;;;;;6.53;3.50;;;;;;;;;;5092718;28;20487;-76
2021/10/08 13:12:50;;;;;;;;;;;;;;;;;;5093368;28;20560;-76
2021/10/08 13:15:20;;;;;;;15.90;3.83;;;;;;;;;;5092928;28;19947;-76
2021/10/08 13:18:14;;;;;;;3.58;2.40;;;;;;;;;;5092713;28;20080;-77
2021/10/08 13:20:46;;;;;;;11.60;4.00;;;;;;;;;;5092438;28;20500;-77
2021/10/08 13:23:14;;;;;;;13.88;4.43;;;;;;;;;;5092483;28;20533;-75
2021/10/08 13:25:43;;;;;;;5.13;3.30;;;;;;;;;;5074379;28;20036;-76
2021/10/08 13:28:12;;;;;;;7.75;2.97;;;;;;;;;;5091639;28;20095;-78
2021/10/08 13:30:38;;;;;;;;;;;;;;;;;;5092567;28;20035;-75
2021/10/08 13:33:04;;;;;;;8.02;4.35;;;;;;;;;;5092398;28;20285;-77
2021/10/08 13:35:30;;;;;;;7.28;3.85;;;;;;;;;;5092605;28;20032;-75
2021/10/08 13:37:56;;;;;;;10.52;4.00;;;;;;;;;;5092128;28;20059;-71
2021/10/08 13:40:23;;;;;;;8.05;3.72;;;;;;;;;;5092572;28;20059;-69
2021/10/08 13:42:49;;;;;;;11.68;4.70;;;;;;;;;;5092266;28;20043;-69
2021/10/08 13:45:15;;;;;;;7.28;4.53;;;;;;;;;;5092092;28;20111;-69
2021/10/08 13:47:41;;;;;;;7.20;3.92;;;;;;;;;;5073989;28;20120;-69
2021/10/08 13:50:07;;;;;;;12.63;4.53;;;;;;;;;;5092105;28;20036;-69
2021/10/08 13:52:33;;;;;;;12.55;4.05;;;;;;;;;;5092391;28;20089;-68
2021/10/08 13:54:58;;;;;;;8.10;3.33;;;;;;;;;;5091542;28;20052;-69
2021/10/08 13:57:24;;;;;;;12.13;5.57;;;;;;;;;;5092034;28;20463;-68
2021/10/08 13:59:49;;;;;;;9.15;4.93;;;;;;;;;;5092075;28;20039;-69
2021/10/08 14:02:24;;;;;;;10.85;4.90;;;;;;;;;;5091493;28;20266;-70
2021/10/08 14:05:07;;;;;;;11.10;4.97;;;;;;;;;;5073292;28;20497;-70
2021/10/08 14:10:22;;;;;;;10.02;4.10;;;;;;;;;;5090860;28;20134;-69
2021/10/08 14:12:50;;;;;;;9.65;4.38;;;;;;;;;;5073102;28;20024;-71
2021/10/08 14:15:17;;;;;;;11.45;5.25;;;;;;;;;;5073008;28;20138;-70
2021/10/08 14:17:43;;;;;;;15.30;7.35;;;;;;;;;;5090830;28;20099;-70
2021/10/08 14:20:09;;;;;;;11.32;5.43;;;;;;;;;;5090790;28;20449;-71
2021/10/08 14:22:35;;;;;;;6.93;3.97;;;;;;;;;;5090887;28;20481;-70
2021/10/08 14:25:01;;;;;;;8.40;4.00;;;;;;;;;;5073063;28;20039;-69
2021/10/08 14:27:30;;;;;;;7.75;4.32;;;;;;;;;;5090968;28;20572;-71
2021/10/08 14:29:56;;;;;;;15.73;4.68;;;;;;;;;;5090664;28;20036;-69
2021/10/08 14:32:22;;;;;;;11.50;4.43;;;;;;;;;;5091118;28;20032;-70
2021/10/08 14:34:48;;;;;;;6.43;3.42;;;;;;;;;;5073022;28;20032;-69
2021/10/08 14:37:13;;;;;;;7.60;4.20;;;;;;;;;;5091330;28;20028;-70
2021/10/08 14:39:39;;;;;;;11.23;4.35;;;;;;;;;;5094814;28;20450;-70
2021/10/08 14:42:04;;;;;;;9.38;3.50;;;;;;;;;;5077311;28;20524;-69
2021/10/08 14:44:30;;;;;;;5.75;3.30;;;;;;;;;;5095387;28;20032;-71
2021/10/08 14:46:55;;;;;;;7.25;4.13;;;;;;;;;;5095284;28;20046;-71
2021/10/08 14:49:21;;;;;;;7.35;4.63;;;;;;;;;;5095270;28;20031;-70